createdAt,value
2018-01-01T00:00:10.840Z,24.83
2018-01-01T00:02:38.244Z,23.63
2018-01-01T00:05:05.669Z,23.17
2018-01-01T00:07:33.077Z,23.43
2018-01-01T00:10:00.484Z,21.60
2018-01-01T00:12:27.888Z,21.10
2018-01-01T00:14:55.292Z,21.87
2018-01-01T00:17:22.705Z,20.43
2018-01-01T00:19:50.109Z,17.67
2018-01-01T00:22:17.532Z,18.30
2018-01-01T00:24:44.933Z,18.83
2018-01-01T00:27:12.344Z,19.37
2018-01-01T00:29:39.762Z,19.30
2018-01-01T00:32:07.173Z,17.60
2018-01-01T00:34:34.585Z,18.60
2018-01-01T00:37:02.026Z,18.87
2018-01-01T00:39:29.425Z,19.33
2018-01-01T00:41:56.850Z,20.93
2018-01-01T00:44:24.253Z,19.20
2018-01-01T00:46:51.690Z,20.30
2018-01-01T00:49:19.069Z,17.97
2018-01-01T00:51:46.476Z,16.60
2018-01-01T00:54:13.889Z,17.53
2018-01-01T00:56:41.297Z,16.50
2018-01-01T00:59:08.713Z,14.87
2018-01-01T01:01:36.135Z,12.67
2018-01-01T01:04:03.526Z,17.87
2018-01-01T01:06:30.935Z,14.73
2018-01-01T01:08:58.336Z,13.13
2018-01-01T01:11:25.749Z,12.90
2018-01-01T01:13:53.170Z,12.00
2018-01-01T01:16:20.563Z,11.97
2018-01-01T01:18:47.969Z,11.87
2018-01-01T01:21:15.376Z,12.37
2018-01-01T01:23:42.796Z,12.73
2018-01-01T01:26:10.208Z,11.60
2018-01-01T01:28:37.612Z,11.00
2018-01-01T01:31:05.021Z,11.40
2018-01-01T01:33:32.436Z,10.77
2018-01-01T01:35:59.857Z,10.93
2018-01-01T01:38:27.269Z,10.50
2018-01-01T01:40:54.668Z,9.50
2018-01-01T01:43:22.081Z,9.70
2018-01-01T01:45:49.484Z,9.87
2018-01-01T01:48:16.901Z,10.90
2018-01-01T01:50:44.301Z,9.87
2018-01-01T01:53:11.712Z,10.30
2018-01-01T01:55:39.133Z,10.50
2018-01-01T01:58:06.532Z,10.63
2018-01-01T02:00:33.953Z,10.67
2018-01-01T02:03:01.353Z,9.77
2018-01-01T02:05:28.757Z,10.17
2018-01-01T02:07:56.206Z,9.60
2018-01-01T02:10:23.572Z,10.43
2018-01-01T02:12:50.977Z,9.83
2018-01-01T02:15:18.377Z,9.90
2018-01-01T02:17:45.793Z,10.13
2018-01-01T02:20:13.209Z,10.67
2018-01-01T02:22:40.617Z,10.00
2018-01-01T02:25:08.028Z,10.23
2018-01-01T02:27:35.437Z,11.10
2018-01-01T02:30:02.851Z,10.60
2018-01-01T02:32:33.049Z,10.70
2018-01-01T02:35:00.466Z,10.13
2018-01-01T02:37:27.870Z,10.33
2018-01-01T02:39:55.273Z,10.27
2018-01-01T02:42:22.691Z,10.40
2018-01-01T02:44:50.094Z,10.57
2018-01-01T02:47:17.496Z,9.83
2018-01-01T02:49:44.897Z,9.73
2018-01-01T02:52:12.318Z,8.93
2018-01-01T02:54:39.716Z,9.30
2018-01-01T02:57:07.113Z,9.87
2018-01-01T02:59:34.521Z,9.37
2018-01-01T03:02:01.919Z,9.30
2018-01-01T03:04:29.324Z,8.40
2018-01-01T03:06:56.729Z,8.60
2018-01-01T03:09:24.133Z,8.83
2018-01-01T03:11:51.546Z,8.73
2018-01-01T03:14:18.936Z,9.13
2018-01-01T03:16:46.341Z,9.27
2018-01-01T03:19:13.740Z,8.70
2018-01-01T03:21:41.158Z,8.77
2018-01-01T03:24:08.556Z,9.03
2018-01-01T03:26:35.960Z,8.93
2018-01-01T03:29:03.357Z,8.70
2018-01-01T03:31:30.748Z,8.80
2018-01-01T03:33:58.156Z,8.93
2018-01-01T03:36:25.560Z,8.60
2018-01-01T03:38:52.975Z,8.10
2018-01-01T03:41:20.368Z,8.83
2018-01-01T03:43:47.776Z,8.90
2018-01-01T03:46:15.177Z,8.00
2018-01-01T03:48:42.573Z,8.40
2018-01-01T03:51:09.978Z,8.07
2018-01-01T03:53:37.368Z,8.30
2018-01-01T03:56:04.777Z,9.17
2018-01-01T03:58:32.182Z,8.87
2018-01-01T04:00:59.593Z,8.37
2018-01-01T04:03:26.999Z,8.30
2018-01-01T04:05:54.396Z,9.30
2018-01-01T04:08:21.801Z,8.60
2018-01-01T04:10:49.203Z,8.43
2018-01-01T04:13:16.609Z,8.27
2018-01-01T04:15:44.004Z,8.43
2018-01-01T04:18:11.412Z,8.50
2018-01-01T04:20:38.805Z,8.70
2018-01-01T04:23:06.210Z,8.83
2018-01-01T04:25:33.609Z,8.40
2018-01-01T04:28:01.009Z,8.03
2018-01-01T04:30:28.422Z,8.53
2018-01-01T04:32:55.826Z,8.73
2018-01-01T04:35:23.228Z,9.20
2018-01-01T04:37:50.625Z,8.70
2018-01-01T04:40:18.020Z,9.03
2018-01-01T04:42:45.417Z,9.07
2018-01-01T04:45:12.808Z,9.13
2018-01-01T04:47:40.221Z,9.30
2018-01-01T04:50:07.617Z,8.90
2018-01-01T04:52:35.019Z,9.10
2018-01-01T04:55:02.420Z,9.17
2018-01-01T04:57:29.821Z,9.10
2018-01-01T04:59:57.229Z,9.47
2018-01-01T05:02:24.620Z,8.87
2018-01-01T05:04:52.020Z,8.73
2018-01-01T05:07:19.417Z,8.40
2018-01-01T05:09:46.820Z,8.47
2018-01-01T05:12:14.216Z,9.33
2018-01-01T05:14:41.616Z,8.30
2018-01-01T05:17:09.026Z,8.30
2018-01-01T05:19:36.429Z,8.20
2018-01-01T05:22:03.828Z,7.70
2018-01-01T05:24:31.240Z,8.10
2018-01-01T05:26:58.650Z,8.50
2018-01-01T05:29:26.065Z,9.00
2018-01-01T05:31:53.462Z,8.10
2018-01-01T05:34:20.870Z,7.70
2018-01-01T05:36:48.264Z,8.40
2018-01-01T05:39:15.665Z,7.60
2018-01-01T05:41:43.105Z,7.93
2018-01-01T05:44:10.505Z,7.90
2018-01-01T05:46:37.900Z,8.40
2018-01-01T05:49:05.297Z,8.30
2018-01-01T05:51:32.701Z,8.13
2018-01-01T05:54:00.101Z,7.83
2018-01-01T05:56:27.509Z,8.13
2018-01-01T05:58:54.912Z,8.00
2018-01-01T06:01:22.335Z,8.20
2018-01-01T06:03:49.734Z,8.17
2018-01-01T06:06:17.124Z,8.03
2018-01-01T06:08:44.528Z,8.30
2018-01-01T06:11:11.928Z,8.83
2018-01-01T06:13:39.336Z,8.20
2018-01-01T06:16:06.724Z,8.93
2018-01-01T06:18:34.141Z,7.87
2018-01-01T06:21:01.532Z,8.03
2018-01-01T06:23:28.925Z,8.43
2018-01-01T06:25:56.349Z,7.90
2018-01-01T06:28:23.741Z,8.60
2018-01-01T06:30:51.155Z,7.83
2018-01-01T06:33:18.548Z,8.10
2018-01-01T06:35:45.960Z,7.63
2018-01-01T06:38:13.360Z,8.03
2018-01-01T06:40:40.753Z,8.40
2018-01-01T06:43:08.155Z,8.13
2018-01-01T06:45:35.556Z,8.30
2018-01-01T06:48:02.954Z,8.57
2018-01-01T06:50:30.348Z,8.13
2018-01-01T06:52:57.760Z,8.20
2018-01-01T06:55:25.162Z,8.60
2018-01-01T06:57:52.562Z,8.83
2018-01-01T07:00:19.968Z,8.20
2018-01-01T07:02:47.397Z,8.13
2018-01-01T07:05:14.797Z,8.27
2018-01-01T07:07:42.192Z,8.70
2018-01-01T07:10:09.601Z,9.00
2018-01-01T07:12:37.013Z,9.23
2018-01-01T07:15:04.413Z,8.50
2018-01-01T07:17:31.824Z,9.30
2018-01-01T07:19:59.229Z,9.90
2018-01-01T07:22:26.627Z,9.03
2018-01-01T07:24:54.025Z,9.10
2018-01-01T07:27:21.433Z,9.07
2018-01-01T07:29:48.846Z,9.30
2018-01-01T07:32:16.232Z,9.30
2018-01-01T07:34:43.636Z,8.93
2018-01-01T07:37:11.044Z,8.63
2018-01-01T07:39:38.466Z,8.70
2018-01-01T07:42:05.864Z,9.00
2018-01-01T07:44:33.262Z,8.93
2018-01-01T07:47:00.675Z,9.20
2018-01-01T07:49:28.060Z,8.73
2018-01-01T07:51:55.476Z,9.37
2018-01-01T07:54:22.878Z,9.00
2018-01-01T07:56:50.285Z,9.00
2018-01-01T07:59:17.689Z,10.03
2018-01-01T08:01:45.077Z,9.30
2018-01-01T08:04:12.489Z,8.40
2018-01-01T08:06:39.896Z,9.30
2018-01-01T08:09:07.327Z,8.30
2018-01-01T08:11:34.717Z,8.30
2018-01-01T08:14:02.116Z,9.10
2018-01-01T08:16:29.536Z,9.30
2018-01-01T08:18:56.937Z,8.77
2018-01-01T08:21:24.337Z,8.10
2018-01-01T08:23:51.765Z,8.20
2018-01-01T08:26:19.161Z,9.57
2018-01-01T08:28:46.574Z,8.60
2018-01-01T08:31:13.968Z,8.90
2018-01-01T08:33:41.384Z,9.03
2018-01-01T08:36:08.780Z,7.70
2018-01-01T08:38:36.198Z,9.10
2018-01-01T08:41:03.601Z,7.60
2018-01-01T08:43:31.006Z,9.60
2018-01-01T08:45:58.404Z,9.63
2018-01-01T08:48:25.825Z,8.43
2018-01-01T08:50:53.221Z,8.80
2018-01-01T08:53:20.645Z,9.00
2018-01-01T08:55:48.049Z,9.90
2018-01-01T08:58:15.457Z,10.27
2018-01-01T09:00:42.861Z,9.47
2018-01-01T09:03:10.282Z,9.10
2018-01-01T09:05:37.733Z,9.40
2018-01-01T09:08:05.083Z,9.20
2018-01-01T09:10:32.480Z,9.20
2018-01-01T09:12:59.881Z,9.10
2018-01-01T09:15:27.283Z,8.57
2018-01-01T09:17:54.684Z,9.10
2018-01-01T09:20:22.129Z,9.43
2018-01-01T09:22:49.537Z,9.73
2018-01-01T09:25:16.936Z,9.40
2018-01-01T09:27:44.344Z,9.53
2018-01-01T09:30:11.760Z,9.93
2018-01-01T09:32:39.165Z,9.73
2018-01-01T09:35:06.572Z,9.70
2018-01-01T09:37:33.978Z,10.60
2018-01-01T09:40:01.381Z,10.63
2018-01-01T09:42:28.796Z,10.30
2018-01-01T09:44:56.197Z,10.90
2018-01-01T09:47:23.614Z,9.67
2018-01-01T09:49:51.016Z,9.90
2018-01-01T09:52:18.439Z,10.23
2018-01-01T09:54:45.854Z,7.87
2018-01-01T09:57:13.228Z,8.27
2018-01-01T09:59:40.632Z,8.10
2018-01-01T10:02:08.021Z,8.07
2018-01-01T10:04:35.420Z,9.83
2018-01-01T10:07:02.824Z,9.90
2018-01-01T10:09:30.240Z,9.43
2018-01-01T10:11:57.921Z,9.47
2018-01-01T10:14:25.316Z,8.57
2018-01-01T10:16:52.720Z,8.43
2018-01-01T10:19:20.133Z,9.80
2018-01-01T10:21:47.548Z,10.27
2018-01-01T10:24:14.948Z,9.90
2018-01-01T10:26:42.381Z,9.80
2018-01-01T10:29:09.784Z,10.30
2018-01-01T10:31:37.188Z,9.87
2018-01-01T10:34:04.601Z,9.33
2018-01-01T10:36:32.856Z,9.20
2018-01-01T10:39:00.272Z,9.60
2018-01-01T10:41:27.661Z,9.27
2018-01-01T10:43:55.072Z,8.53
2018-01-01T10:46:22.474Z,9.30
2018-01-01T10:48:49.863Z,8.40
2018-01-01T10:51:17.284Z,9.47
2018-01-01T10:53:44.681Z,9.03
2018-01-01T10:56:12.536Z,9.23
2018-01-01T10:58:39.940Z,8.57
2018-01-01T11:01:07.364Z,7.93
2018-01-01T11:03:34.770Z,7.50
2018-01-01T11:06:02.165Z,8.60
2018-01-01T11:08:29.573Z,8.23
2018-01-01T11:10:56.976Z,8.53
2018-01-01T11:13:24.385Z,8.83
2018-01-01T11:15:51.793Z,9.13
2018-01-01T11:18:19.206Z,8.90
2018-01-01T11:20:46.621Z,10.27
2018-01-01T11:23:14.020Z,8.80
2018-01-01T11:25:41.440Z,9.13
2018-01-01T11:28:08.845Z,9.63
2018-01-01T11:30:36.265Z,9.10
2018-01-01T11:33:03.669Z,9.73
2018-01-01T11:35:31.085Z,9.23
2018-01-01T11:37:58.481Z,8.50
2018-01-01T11:40:25.920Z,8.33
2018-01-01T11:42:53.313Z,8.60
2018-01-01T11:45:20.720Z,9.63
2018-01-01T11:47:48.132Z,9.03
2018-01-01T11:50:15.570Z,9.10
2018-01-01T11:52:42.977Z,9.50
2018-01-01T11:55:10.415Z,8.60
2018-01-01T11:57:37.831Z,9.17
2018-01-01T12:00:05.255Z,8.47
2018-01-01T12:02:33.364Z,9.30
2018-01-01T12:05:00.781Z,10.57
2018-01-01T12:07:28.186Z,9.87
2018-01-01T12:09:55.601Z,10.10
2018-01-01T12:12:23.108Z,10.40
2018-01-01T12:14:50.521Z,9.50
2018-01-01T12:17:17.928Z,10.33
2018-01-01T12:19:45.328Z,9.60
2018-01-01T12:22:12.737Z,9.90
2018-01-01T12:24:40.151Z,9.67
2018-01-01T12:27:07.564Z,9.83
2018-01-01T12:29:34.976Z,9.83
2018-01-01T12:32:02.624Z,9.70
2018-01-01T12:34:30.065Z,10.23
2018-01-01T12:36:57.528Z,10.37
2018-01-01T12:39:24.940Z,10.00
2018-01-01T12:41:52.357Z,11.00
2018-01-01T12:44:19.777Z,10.90
2018-01-01T12:46:47.193Z,10.60
2018-01-01T12:49:14.638Z,10.93
2018-01-01T12:51:42.049Z,9.87
2018-01-01T12:54:09.480Z,10.70
2018-01-01T12:56:36.901Z,10.70
2018-01-01T12:59:05.285Z,10.37
2018-01-01T13:01:32.697Z,9.83
2018-01-01T13:04:00.102Z,10.40
2018-01-01T13:06:27.528Z,9.77
2018-01-01T13:09:08.023Z,9.70
2018-01-01T13:11:36.382Z,10.00
2018-01-01T13:14:03.785Z,10.40
2018-01-01T13:16:31.189Z,10.37
2018-01-01T13:18:58.725Z,10.23
2018-01-01T13:21:37.683Z,9.93
2018-01-01T13:24:05.117Z,10.63
2018-01-01T13:26:32.538Z,10.40
2018-01-01T13:28:59.957Z,10.20
2018-01-01T13:31:28.066Z,11.10
2018-01-01T13:33:56.104Z,11.30
2018-01-01T13:36:23.513Z,10.67
2018-01-01T13:38:50.925Z,12.07
2018-01-01T13:41:19.116Z,10.60
2018-01-01T13:43:47.477Z,11.17
2018-01-01T13:46:16.014Z,10.70
2018-01-01T13:48:43.414Z,11.33
2018-01-01T13:51:10.829Z,10.97
2018-01-01T13:53:38.585Z,10.83
2018-01-01T13:56:05.997Z,11.10
2018-01-01T13:58:33.398Z,10.30
2018-01-01T14:01:01.409Z,11.30
2018-01-01T14:03:28.840Z,10.70
2018-01-01T14:05:56.254Z,11.27
2018-01-01T14:08:23.672Z,11.03
2018-01-01T14:10:51.078Z,10.80
2018-01-01T14:13:18.481Z,10.10
2018-01-01T14:15:45.888Z,9.70
2018-01-01T14:18:13.288Z,10.20
2018-01-01T14:20:40.954Z,9.90
2018-01-01T14:23:08.361Z,10.13
2018-01-01T14:25:35.766Z,10.77
2018-01-01T14:28:03.172Z,10.10
2018-01-01T14:30:30.581Z,10.27
2018-01-01T14:32:58.000Z,9.33
2018-01-01T14:35:25.516Z,9.97
2018-01-01T14:37:52.949Z,9.87
2018-01-01T14:40:20.355Z,10.77
2018-01-01T14:42:47.752Z,11.53
2018-01-01T14:45:15.161Z,10.83
2018-01-01T14:47:42.577Z,11.83
2018-01-01T14:50:09.989Z,10.53
2018-01-01T14:52:37.393Z,10.30
2018-01-01T14:55:04.809Z,12.10
2018-01-01T14:57:32.233Z,10.33
2018-01-01T14:59:59.636Z,11.03
2018-01-01T15:02:27.066Z,10.73
2018-01-01T15:04:54.473Z,11.33
2018-01-01T15:07:21.886Z,11.33
2018-01-01T15:09:49.291Z,11.57
2018-01-01T15:12:16.728Z,11.00
2018-01-01T15:14:44.142Z,10.67
2018-01-01T15:17:11.536Z,11.73
2018-01-01T15:19:38.949Z,11.90
2018-01-01T15:22:06.357Z,11.67
2018-01-01T15:24:33.845Z,11.23
2018-01-01T15:27:01.249Z,12.43
2018-01-01T15:29:28.668Z,12.20
2018-01-01T15:31:56.083Z,11.33
2018-01-01T15:34:23.493Z,13.00
2018-01-01T15:36:50.910Z,12.47
2018-01-01T15:39:18.309Z,13.07
2018-01-01T15:41:45.723Z,13.30
2018-01-01T15:44:13.124Z,13.23
2018-01-01T15:46:40.558Z,14.00
2018-01-01T15:49:07.956Z,13.10
2018-01-01T15:51:35.369Z,13.90
2018-01-01T15:54:02.772Z,12.80
2018-01-01T15:56:30.197Z,12.77
2018-01-01T15:58:57.610Z,12.37
2018-01-01T16:01:25.020Z,13.43
2018-01-01T16:03:52.441Z,12.37
2018-01-01T16:06:19.852Z,13.03
2018-01-01T16:08:47.264Z,12.83
2018-01-01T16:11:14.673Z,12.80
2018-01-01T16:13:42.090Z,12.80
2018-01-01T16:16:09.502Z,11.00
2018-01-01T16:18:36.905Z,10.60
2018-01-01T16:21:04.332Z,10.90
2018-01-01T16:23:31.753Z,12.10
2018-01-01T16:25:59.169Z,11.13
2018-01-01T16:28:26.577Z,11.20
2018-01-01T16:30:53.987Z,11.00
2018-01-01T16:33:21.402Z,11.43
2018-01-01T16:35:48.806Z,11.60
2018-01-01T16:38:16.254Z,10.90
2018-01-01T16:40:43.656Z,11.00
2018-01-01T16:43:11.064Z,10.20
2018-01-01T16:45:38.469Z,11.10
2018-01-01T16:48:12.780Z,12.47
2018-01-01T16:50:43.861Z,12.07
2018-01-01T16:53:11.274Z,10.87
2018-01-01T16:55:38.900Z,11.83
2018-01-01T16:58:06.300Z,10.97
2018-01-01T17:00:33.700Z,10.93
2018-01-01T17:03:01.122Z,11.00
2018-01-01T17:05:29.616Z,12.00
2018-01-01T17:07:57.028Z,11.60
2018-01-01T17:10:24.444Z,11.57
2018-01-01T17:13:00.489Z,12.00
2018-01-01T17:15:27.889Z,11.90
2018-01-01T17:17:55.300Z,11.60
2018-01-01T17:20:22.712Z,12.03
2018-01-01T17:22:50.116Z,12.00
2018-01-01T17:25:17.529Z,12.57
2018-01-01T17:27:45.392Z,13.60
2018-01-01T17:30:14.379Z,12.27
2018-01-01T17:32:43.200Z,12.13
2018-01-01T17:35:10.909Z,12.03
2018-01-01T17:37:38.831Z,11.77
2018-01-01T17:40:06.970Z,12.50
2018-01-01T17:42:34.409Z,11.30
2018-01-01T17:45:01.817Z,11.47
2018-01-01T17:47:29.250Z,11.57
2018-01-01T17:49:56.653Z,12.03
2018-01-01T17:52:24.072Z,11.57
2018-01-01T17:54:51.485Z,11.33
2018-01-01T17:57:18.880Z,12.30
2018-01-01T17:59:46.300Z,13.27
2018-01-01T18:02:13.700Z,12.00
2018-01-01T18:04:41.130Z,11.70
2018-01-01T18:07:08.542Z,11.33
2018-01-01T18:09:35.963Z,11.70
2018-01-01T18:12:03.369Z,10.97
2018-01-01T18:14:30.772Z,13.10
2018-01-01T18:17:00.316Z,13.40
2018-01-01T18:19:27.725Z,13.70
2018-01-01T18:21:55.153Z,14.80
2018-01-01T18:24:22.578Z,13.27
2018-01-01T18:26:49.981Z,13.07
2018-01-01T18:29:17.527Z,13.60
2018-01-01T18:31:44.932Z,13.30
2018-01-01T18:34:16.093Z,13.20
2018-01-01T18:36:43.488Z,12.67
2018-01-01T18:39:10.913Z,12.73
2018-01-01T18:41:38.325Z,13.13
2018-01-01T18:44:05.729Z,12.70
2018-01-01T18:46:33.154Z,14.77
2018-01-01T18:49:02.485Z,13.57
2018-01-01T18:51:29.905Z,12.87
2018-01-01T18:53:57.388Z,15.37
2018-01-01T18:56:24.817Z,12.67
2018-01-01T18:58:52.220Z,13.30
2018-01-01T19:01:19.674Z,12.67
2018-01-01T19:03:47.033Z,13.13
2018-01-01T19:06:14.437Z,12.90
2018-01-01T19:08:41.853Z,12.37
2018-01-01T19:11:09.264Z,13.37
2018-01-01T19:13:36.700Z,13.00
2018-01-01T19:16:04.105Z,11.73
2018-01-01T19:18:31.525Z,12.80
2018-01-01T19:20:58.934Z,13.03
2018-01-01T19:23:26.325Z,13.13
2018-01-01T19:25:53.736Z,12.00
2018-01-01T19:28:21.145Z,12.13
2018-01-01T19:30:48.569Z,12.10
2018-01-01T19:33:15.976Z,13.10
2018-01-01T19:35:43.381Z,13.87
2018-01-01T19:38:10.800Z,13.00
2018-01-01T19:40:38.223Z,14.47
2018-01-01T19:43:05.635Z,13.77
2018-01-01T19:45:33.050Z,13.50
2018-01-01T19:48:00.490Z,14.47
2018-01-01T19:50:27.893Z,15.10
2018-01-01T19:52:55.305Z,13.70
2018-01-01T19:55:22.720Z,13.80
2018-01-01T19:57:50.121Z,13.07
2018-01-01T20:00:17.533Z,12.17
2018-01-01T20:02:44.936Z,12.40
2018-01-01T20:05:12.365Z,12.60
2018-01-01T20:07:39.772Z,12.50
2018-01-01T20:10:07.189Z,12.40
2018-01-01T20:12:34.604Z,12.13
2018-01-01T20:15:02.017Z,12.33
2018-01-01T20:17:29.429Z,12.80
2018-01-01T20:19:56.851Z,13.07
2018-01-01T20:22:24.290Z,13.17
2018-01-01T20:24:51.705Z,12.93
2018-01-01T20:27:19.112Z,13.30
2018-01-01T20:29:46.520Z,14.03
2018-01-01T20:32:13.942Z,13.80
2018-01-01T20:34:41.354Z,13.70
2018-01-01T20:37:08.764Z,13.67
2018-01-01T20:39:36.197Z,13.90
2018-01-01T20:42:03.600Z,15.10
2018-01-01T20:44:31.006Z,14.87
2018-01-01T20:46:58.413Z,15.13
2018-01-01T20:49:25.816Z,15.93
2018-01-01T20:51:53.223Z,15.43
2018-01-01T20:54:20.625Z,15.10
2018-01-01T20:56:48.061Z,16.30
2018-01-01T20:59:15.492Z,15.03
2018-01-01T21:01:42.902Z,14.83
2018-01-01T21:04:10.313Z,14.10
2018-01-01T21:06:37.717Z,15.00
2018-01-01T21:09:05.124Z,15.50
2018-01-01T21:11:32.532Z,15.43
2018-01-01T21:13:59.957Z,14.27
2018-01-01T21:16:27.370Z,14.60
2018-01-01T21:18:54.765Z,14.60
2018-01-01T21:21:22.187Z,15.20
2018-01-01T21:23:49.586Z,15.13
2018-01-01T21:26:17.001Z,15.10
2018-01-01T21:28:44.404Z,14.70
2018-01-01T21:31:11.841Z,14.40
2018-01-01T21:33:39.246Z,15.03
2018-01-01T21:36:06.656Z,16.40
2018-01-01T21:38:34.069Z,17.30
2018-01-01T21:41:01.474Z,17.30
2018-01-01T21:43:28.888Z,16.53
2018-01-01T21:45:56.289Z,17.07
2018-01-01T21:48:23.705Z,17.27
2018-01-01T21:50:51.108Z,16.80
2018-01-01T21:53:18.510Z,16.97
2018-01-01T21:55:45.922Z,15.70
2018-01-01T21:58:13.321Z,17.07
2018-01-01T22:00:40.788Z,16.50
2018-01-01T22:03:08.141Z,16.83
2018-01-01T22:05:35.564Z,16.57
2018-01-01T22:08:02.986Z,15.90
2018-01-01T22:10:30.400Z,15.80
2018-01-01T22:12:57.829Z,16.33
2018-01-01T22:15:25.229Z,16.80
2018-01-01T22:17:52.640Z,17.10
2018-01-01T22:20:20.049Z,17.50
2018-01-01T22:22:47.468Z,16.73
2018-01-01T22:25:14.869Z,16.27
2018-01-01T22:27:42.285Z,18.07
2018-01-01T22:30:09.698Z,17.23
2018-01-01T22:32:37.102Z,15.83
2018-01-01T22:35:04.513Z,16.70
2018-01-01T22:37:31.921Z,17.10
2018-01-01T22:39:59.344Z,16.40
2018-01-01T22:42:34.757Z,15.73
2018-01-01T22:45:02.185Z,16.40
2018-01-01T22:47:29.602Z,17.50
2018-01-01T22:49:57.029Z,16.87
2018-01-01T22:52:24.438Z,17.17
2018-01-01T22:54:51.849Z,18.87
2018-01-01T22:57:19.264Z,16.20
2018-01-01T22:59:46.672Z,15.97
2018-01-01T23:02:14.175Z,16.33
2018-01-01T23:04:41.581Z,17.00
2018-01-01T23:07:08.989Z,17.33
2018-01-01T23:09:36.399Z,16.40
2018-01-01T23:12:03.806Z,16.20
2018-01-01T23:14:31.221Z,15.60
2018-01-01T23:16:58.629Z,15.53
2018-01-01T23:19:26.044Z,16.00
2018-01-01T23:21:53.457Z,15.87
2018-01-01T23:24:20.860Z,15.63
2018-01-01T23:26:48.272Z,15.07
2018-01-01T23:29:15.685Z,15.13
2018-01-01T23:31:43.129Z,14.70
2018-01-01T23:34:10.546Z,14.83
2018-01-01T23:36:37.970Z,15.73
2018-01-01T23:39:05.374Z,15.50
2018-01-01T23:41:32.789Z,15.30
2018-01-01T23:44:00.203Z,15.83
2018-01-01T23:46:27.612Z,15.90
2018-01-01T23:48:55.021Z,16.30
2018-01-01T23:51:22.438Z,17.73
2018-01-01T23:53:49.841Z,16.87
2018-01-01T23:56:17.257Z,17.90
2018-01-01T23:58:44.660Z,18.60
